sensor_id;sensor_type;location;lat;lon;timestamp;P1;durP1;ratioP1;P2;durP2;ratioP2
31282;SDS011;17915;52.540;13.604;2023-01-09T00:01:36;20.90;;;12.32;;
31282;SDS011;17915;52.540;13.604;2023-01-09T00:04:04;17.65;;;11.48;;
31282;SDS011;17915;52.540;13.604;2023-01-09T00:06:29;17.77;;;13.13;;
31282;SDS011;17915;52.540;13.604;2023-01-09T00:08:55;16.57;;;10.63;;
31282;SDS011;17915;52.540;13.604;2023-01-09T00:11:20;16.67;;;11.50;;
31282;SDS011;17915;52.540;13.604;2023-01-09T00:13:46;19.03;;;12.00;;
31282;SDS011;17915;52.540;13.604;2023-01-09T00:16:11;15.03;;;11.47;;
31282;SDS011;17915;52.540;13.604;2023-01-09T00:18:37;16.60;;;11.23;;
31282;SDS011;17915;52.540;13.604;2023-01-09T00:21:03;15.43;;;10.23;;
31282;SDS011;17915;52.540;13.604;2023-01-09T00:23:30;15.57;;;11.73;;
31282;SDS011;17915;52.540;13.604;2023-01-09T00:26:06;17.33;;;11.83;;
31282;SDS011;17915;52.540;13.604;2023-01-09T00:30:59;16.27;;;10.88;;
31282;SDS011;17915;52.540;13.604;2023-01-09T00:33:29;16.05;;;10.85;;
31282;SDS011;17915;52.540;13.604;2023-01-09T00:35:56;18.55;;;12.48;;
31282;SDS011;17915;52.540;13.604;2023-01-09T00:38:22;20.03;;;13.13;;
31282;SDS011;17915;52.540;13.604;2023-01-09T00:40:47;25.00;;;14.20;;
31282;SDS011;17915;52.540;13.604;2023-01-09T00:43:13;20.10;;;13.00;;
31282;SDS011;17915;52.540;13.604;2023-01-09T00:45:38;19.90;;;13.03;;
31282;SDS011;17915;52.540;13.604;2023-01-09T00:48:08;17.80;;;11.83;;
31282;SDS011;17915;52.540;13.604;2023-01-09T00:50:36;20.25;;;12.05;;
31282;SDS011;17915;52.540;13.604;2023-01-09T00:53:06;21.00;;;13.13;;
31282;SDS011;17915;52.540;13.604;2023-01-09T00:55:41;17.92;;;12.07;;
31282;SDS011;17915;52.540;13.604;2023-01-09T00:58:07;20.50;;;11.80;;
31282;SDS011;17915;52.540;13.604;2023-01-09T01:00:32;17.38;;;11.23;;
31282;SDS011;17915;52.540;13.604;2023-01-09T01:02:58;24.20;;;12.93;;
31282;SDS011;17915;52.540;13.604;2023-01-09T01:05:23;17.40;;;11.93;;
31282;SDS011;17915;52.540;13.604;2023-01-09T01:08:11;17.13;;;11.52;;
31282;SDS011;17915;52.540;13.604;2023-01-09T01:10:37;22.73;;;12.02;;
31282;SDS011;17915;52.540;13.604;2023-01-09T01:13:03;17.90;;;12.53;;
31282;SDS011;17915;52.540;13.604;2023-01-09T01:15:28;16.77;;;11.47;;
31282;SDS011;17915;52.540;13.604;2023-01-09T01:17:54;20.23;;;11.50;;
31282;SDS011;17915;52.540;13.604;2023-01-09T01:20:20;24.17;;;13.63;;
31282;SDS011;17915;52.540;13.604;2023-01-09T01:22:45;20.63;;;12.67;;
31282;SDS011;17915;52.540;13.604;2023-01-09T01:25:12;22.03;;;13.93;;
31282;SDS011;17915;52.540;13.604;2023-01-09T01:27:39;20.63;;;13.95;;
31282;SDS011;17915;52.540;13.604;2023-01-09T01:30:05;22.48;;;13.05;;
31282;SDS011;17915;52.540;13.604;2023-01-09T01:32:31;18.38;;;13.00;;
31282;SDS011;17915;52.540;13.604;2023-01-09T01:34:57;22.17;;;14.17;;
31282;SDS011;17915;52.540;13.604;2023-01-09T01:37:22;24.80;;;14.43;;
31282;SDS011;17915;52.540;13.604;2023-01-09T01:39:48;25.85;;;14.38;;
31282;SDS011;17915;52.540;13.604;2023-01-09T01:42:14;17.87;;;12.87;;
31282;SDS011;17915;52.540;13.604;2023-01-09T01:52:47;25.85;;;14.48;;
31282;SDS011;17915;52.540;13.604;2023-01-09T01:55:20;23.20;;;13.93;;
31282;SDS011;17915;52.540;13.604;2023-01-09T01:57:47;25.65;;;15.05;;
31282;SDS011;17915;52.540;13.604;2023-01-09T02:00:13;21.23;;;13.73;;
31282;SDS011;17915;52.540;13.604;2023-01-09T02:02:39;25.05;;;15.10;;
31282;SDS011;17915;52.540;13.604;2023-01-09T02:05:07;24.50;;;14.63;;
31282;SDS011;17915;52.540;13.604;2023-01-09T02:07:33;24.15;;;13.88;;
31282;SDS011;17915;52.540;13.604;2023-01-09T02:09:59;25.27;;;14.88;;
31282;SDS011;17915;52.540;13.604;2023-01-09T02:12:25;27.90;;;14.23;;
31282;SDS011;17915;52.540;13.604;2023-01-09T02:14:56;20.63;;;13.60;;
31282;SDS011;17915;52.540;13.604;2023-01-09T02:31:31;28.08;;;15.68;;
31282;SDS011;17915;52.540;13.604;2023-01-09T02:42:08;18.85;;;12.68;;
31282;SDS011;17915;52.540;13.604;2023-01-09T02:44:37;29.02;;;16.23;;
31282;SDS011;17915;52.540;13.604;2023-01-09T02:49:48;28.92;;;15.45;;
31282;SDS011;17915;52.540;13.604;2023-01-09T02:57:44;23.10;;;13.40;;
31282;SDS011;17915;52.540;13.604;2023-01-09T03:00:23;24.23;;;14.90;;
31282;SDS011;17915;52.540;13.604;2023-01-09T03:05:42;26.65;;;15.68;;
31282;SDS011;17915;52.540;13.604;2023-01-09T03:08:15;28.40;;;14.77;;
31282;SDS011;17915;52.540;13.604;2023-01-09T03:13:15;28.25;;;16.63;;
31282;SDS011;17915;52.540;13.604;2023-01-09T03:15:43;23.63;;;14.73;;
31282;SDS011;17915;52.540;13.604;2023-01-09T03:18:10;29.92;;;16.85;;
31282;SDS011;17915;52.540;13.604;2023-01-09T03:20:37;23.80;;;14.88;;
31282;SDS011;17915;52.540;13.604;2023-01-09T03:23:03;27.85;;;15.85;;
31282;SDS011;17915;52.540;13.604;2023-01-09T03:25:30;25.48;;;14.70;;
31282;SDS011;17915;52.540;13.604;2023-01-09T03:27:56;24.50;;;14.95;;
31282;SDS011;17915;52.540;13.604;2023-01-09T03:30:24;27.70;;;15.20;;
31282;SDS011;17915;52.540;13.604;2023-01-09T03:32:49;28.08;;;15.07;;
31282;SDS011;17915;52.540;13.604;2023-01-09T03:35:15;25.60;;;17.77;;
31282;SDS011;17915;52.540;13.604;2023-01-09T03:37:40;25.50;;;16.47;;
31282;SDS011;17915;52.540;13.604;2023-01-09T03:40:06;22.03;;;14.37;;
31282;SDS011;17915;52.540;13.604;2023-01-09T03:42:32;27.35;;;15.95;;
31282;SDS011;17915;52.540;13.604;2023-01-09T03:44:57;22.50;;;13.93;;
31282;SDS011;17915;52.540;13.604;2023-01-09T03:47:22;18.03;;;13.27;;
31282;SDS011;17915;52.540;13.604;2023-01-09T03:49:48;20.80;;;14.17;;
31282;SDS011;17915;52.540;13.604;2023-01-09T03:52:13;26.37;;;15.60;;
31282;SDS011;17915;52.540;13.604;2023-01-09T03:54:38;23.33;;;17.07;;
31282;SDS011;17915;52.540;13.604;2023-01-09T03:57:04;23.03;;;15.47;;
31282;SDS011;17915;52.540;13.604;2023-01-09T03:59:29;19.40;;;14.00;;
31282;SDS011;17915;52.540;13.604;2023-01-09T04:01:55;22.63;;;14.57;;
31282;SDS011;17915;52.540;13.604;2023-01-09T04:04:20;21.43;;;15.57;;
31282;SDS011;17915;52.540;13.604;2023-01-09T04:06:45;21.27;;;14.37;;
31282;SDS011;17915;52.540;13.604;2023-01-09T04:09:11;23.30;;;15.20;;
31282;SDS011;17915;52.540;13.604;2023-01-09T04:11:36;24.20;;;14.77;;
31282;SDS011;17915;52.540;13.604;2023-01-09T04:14:01;23.10;;;14.57;;
31282;SDS011;17915;52.540;13.604;2023-01-09T04:16:27;24.53;;;14.90;;
31282;SDS011;17915;52.540;13.604;2023-01-09T04:18:52;21.63;;;14.60;;
31282;SDS011;17915;52.540;13.604;2023-01-09T04:21:17;21.47;;;14.10;;
31282;SDS011;17915;52.540;13.604;2023-01-09T04:23:43;22.83;;;14.23;;
31282;SDS011;17915;52.540;13.604;2023-01-09T04:26:09;22.27;;;14.80;;
31282;SDS011;17915;52.540;13.604;2023-01-09T04:28:34;25.50;;;15.37;;
31282;SDS011;17915;52.540;13.604;2023-01-09T04:31:00;22.37;;;14.20;;
31282;SDS011;17915;52.540;13.604;2023-01-09T04:33:26;21.13;;;14.35;;
31282;SDS011;17915;52.540;13.604;2023-01-09T04:35:52;22.05;;;14.15;;
31282;SDS011;17915;52.540;13.604;2023-01-09T04:38:17;25.00;;;15.07;;
31282;SDS011;17915;52.540;13.604;2023-01-09T04:40:45;22.10;;;14.55;;
31282;SDS011;17915;52.540;13.604;2023-01-09T04:43:11;23.85;;;16.10;;
31282;SDS011;17915;52.540;13.604;2023-01-09T04:45:37;21.03;;;13.47;;
31282;SDS011;17915;52.540;13.604;2023-01-09T04:48:02;27.83;;;14.40;;
31282;SDS011;17915;52.540;13.604;2023-01-09T04:50:28;26.63;;;15.83;;
31282;SDS011;17915;52.540;13.604;2023-01-09T04:52:53;21.37;;;13.07;;
31282;SDS011;17915;52.540;13.604;2023-01-09T04:55:19;28.73;;;15.40;;
31282;SDS011;17915;52.540;13.604;2023-01-09T04:57:44;22.07;;;15.40;;
31282;SDS011;17915;52.540;13.604;2023-01-09T05:00:09;24.73;;;14.83;;
31282;SDS011;17915;52.540;13.604;2023-01-09T05:02:36;21.75;;;14.65;;
31282;SDS011;17915;52.540;13.604;2023-01-09T05:05:02;24.50;;;16.13;;
31282;SDS011;17915;52.540;13.604;2023-01-09T05:07:28;21.63;;;14.02;;
31282;SDS011;17915;52.540;13.604;2023-01-09T05:09:53;22.70;;;14.17;;
31282;SDS011;17915;52.540;13.604;2023-01-09T05:12:18;24.20;;;15.30;;
31282;SDS011;17915;52.540;13.604;2023-01-09T05:14:44;24.90;;;15.20;;
31282;SDS011;17915;52.540;13.604;2023-01-09T05:17:09;19.37;;;14.00;;
31282;SDS011;17915;52.540;13.604;2023-01-09T05:19:34;23.13;;;14.53;;
31282;SDS011;17915;52.540;13.604;2023-01-09T05:22:00;24.63;;;13.73;;
31282;SDS011;17915;52.540;13.604;2023-01-09T05:24:25;17.73;;;13.00;;
31282;SDS011;17915;52.540;13.604;2023-01-09T05:26:51;21.27;;;14.00;;
31282;SDS011;17915;52.540;13.604;2023-01-09T05:29:16;21.60;;;14.13;;
31282;SDS011;17915;52.540;13.604;2023-01-09T05:31:41;21.60;;;12.60;;
31282;SDS011;17915;52.540;13.604;2023-01-09T05:34:07;21.57;;;15.03;;
31282;SDS011;17915;52.540;13.604;2023-01-09T05:36:32;25.10;;;15.00;;
31282;SDS011;17915;52.540;13.604;2023-01-09T05:38:58;25.33;;;15.70;;
31282;SDS011;17915;52.540;13.604;2023-01-09T05:41:23;21.67;;;14.80;;
31282;SDS011;17915;52.540;13.604;2023-01-09T05:43:50;24.17;;;14.73;;
31282;SDS011;17915;52.540;13.604;2023-01-09T05:46:15;23.03;;;13.73;;
31282;SDS011;17915;52.540;13.604;2023-01-09T05:48:41;24.03;;;13.30;;
31282;SDS011;17915;52.540;13.604;2023-01-09T05:51:06;21.50;;;14.20;;
31282;SDS011;17915;52.540;13.604;2023-01-09T05:53:31;23.53;;;14.70;;
31282;SDS011;17915;52.540;13.604;2023-01-09T05:55:57;23.10;;;14.10;;
31282;SDS011;17915;52.540;13.604;2023-01-09T05:58:22;18.63;;;13.37;;
31282;SDS011;17915;52.540;13.604;2023-01-09T06:00:48;19.73;;;13.10;;
31282;SDS011;17915;52.540;13.604;2023-01-09T06:03:13;19.67;;;12.73;;
31282;SDS011;17915;52.540;13.604;2023-01-09T06:05:38;19.60;;;12.60;;
31282;SDS011;17915;52.540;13.604;2023-01-09T06:08:04;20.63;;;11.80;;
31282;SDS011;17915;52.540;13.604;2023-01-09T06:10:29;19.60;;;13.07;;
31282;SDS011;17915;52.540;13.604;2023-01-09T06:12:55;24.93;;;13.47;;
31282;SDS011;17915;52.540;13.604;2023-01-09T06:15:20;20.53;;;13.07;;
31282;SDS011;17915;52.540;13.604;2023-01-09T06:17:46;22.83;;;13.87;;
31282;SDS011;17915;52.540;13.604;2023-01-09T06:20:11;19.92;;;12.18;;
31282;SDS011;17915;52.540;13.604;2023-01-09T06:22:37;18.40;;;13.10;;
31282;SDS011;17915;52.540;13.604;2023-01-09T06:25:02;19.23;;;13.23;;
31282;SDS011;17915;52.540;13.604;2023-01-09T06:27:28;24.58;;;14.13;;
31282;SDS011;17915;52.540;13.604;2023-01-09T06:29:54;26.47;;;14.43;;
31282;SDS011;17915;52.540;13.604;2023-01-09T06:32:19;23.50;;;14.27;;
31282;SDS011;17915;52.540;13.604;2023-01-09T06:34:44;19.50;;;13.47;;
31282;SDS011;17915;52.540;13.604;2023-01-09T06:37:10;24.00;;;13.90;;
31282;SDS011;17915;52.540;13.604;2023-01-09T06:39:35;18.77;;;13.70;;
31282;SDS011;17915;52.540;13.604;2023-01-09T06:42:01;16.37;;;11.97;;
31282;SDS011;17915;52.540;13.604;2023-01-09T06:44:26;21.33;;;14.47;;
31282;SDS011;17915;52.540;13.604;2023-01-09T06:46:51;22.87;;;13.90;;
31282;SDS011;17915;52.540;13.604;2023-01-09T06:49:17;18.33;;;12.17;;
31282;SDS011;17915;52.540;13.604;2023-01-09T06:51:47;17.55;;;12.35;;
31282;SDS011;17915;52.540;13.604;2023-01-09T06:54:14;22.90;;;12.73;;
31282;SDS011;17915;52.540;13.604;2023-01-09T06:56:39;17.47;;;11.90;;
31282;SDS011;17915;52.540;13.604;2023-01-09T06:59:05;21.03;;;13.50;;
31282;SDS011;17915;52.540;13.604;2023-01-09T07:01:30;22.10;;;12.90;;
31282;SDS011;17915;52.540;13.604;2023-01-09T07:03:55;19.23;;;12.80;;
31282;SDS011;17915;52.540;13.604;2023-01-09T07:06:21;22.53;;;13.90;;
31282;SDS011;17915;52.540;13.604;2023-01-09T07:08:46;22.90;;;13.33;;
31282;SDS011;17915;52.540;13.604;2023-01-09T07:11:12;21.37;;;12.93;;
31282;SDS011;17915;52.540;13.604;2023-01-09T07:13:37;25.53;;;14.57;;
31282;SDS011;17915;52.540;13.604;2023-01-09T07:16:03;34.07;;;15.60;;
31282;SDS011;17915;52.540;13.604;2023-01-09T07:18:29;20.30;;;12.65;;
31282;SDS011;17915;52.540;13.604;2023-01-09T07:20:55;26.00;;;15.47;;
31282;SDS011;17915;52.540;13.604;2023-01-09T07:23:20;20.93;;;14.17;;
31282;SDS011;17915;52.540;13.604;2023-01-09T07:25:46;23.33;;;13.97;;
31282;SDS011;17915;52.540;13.604;2023-01-09T07:28:11;18.87;;;13.40;;
31282;SDS011;17915;52.540;13.604;2023-01-09T07:30:36;25.33;;;14.60;;
31282;SDS011;17915;52.540;13.604;2023-01-09T07:33:02;22.93;;;14.13;;
31282;SDS011;17915;52.540;13.604;2023-01-09T07:35:27;24.17;;;13.43;;
31282;SDS011;17915;52.540;13.604;2023-01-09T07:37:53;22.60;;;14.40;;
31282;SDS011;17915;52.540;13.604;2023-01-09T07:40:18;21.60;;;11.50;;
31282;SDS011;17915;52.540;13.604;2023-01-09T07:42:45;20.05;;;12.48;;
31282;SDS011;17915;52.540;13.604;2023-01-09T07:45:10;22.40;;;13.97;;
31282;SDS011;17915;52.540;13.604;2023-01-09T07:47:37;26.70;;;14.23;;
31282;SDS011;17915;52.540;13.604;2023-01-09T07:50:03;24.10;;;14.70;;
31282;SDS011;17915;52.540;13.604;2023-01-09T07:52:29;28.37;;;14.03;;
31282;SDS011;17915;52.540;13.604;2023-01-09T07:54:54;20.43;;;13.00;;
31282;SDS011;17915;52.540;13.604;2023-01-09T07:57:20;23.03;;;13.37;;
31282;SDS011;17915;52.540;13.604;2023-01-09T07:59:45;27.27;;;15.17;;
31282;SDS011;17915;52.540;13.604;2023-01-09T08:02:10;22.90;;;15.10;;
31282;SDS011;17915;52.540;13.604;2023-01-09T08:04:36;22.50;;;13.07;;
31282;SDS011;17915;52.540;13.604;2023-01-09T08:07:01;22.37;;;13.60;;
31282;SDS011;17915;52.540;13.604;2023-01-09T08:09:27;18.13;;;11.67;;
31282;SDS011;17915;52.540;13.604;2023-01-09T08:11:53;19.13;;;12.32;;
31282;SDS011;17915;52.540;13.604;2023-01-09T08:14:18;21.13;;;13.17;;
31282;SDS011;17915;52.540;13.604;2023-01-09T08:16:44;20.10;;;13.70;;
31282;SDS011;17915;52.540;13.604;2023-01-09T08:19:09;26.47;;;13.43;;
31282;SDS011;17915;52.540;13.604;2023-01-09T08:24:01;21.17;;;13.27;;
31282;SDS011;17915;52.540;13.604;2023-01-09T08:26:27;24.77;;;13.83;;
31282;SDS011;17915;52.540;13.604;2023-01-09T08:28:52;16.83;;;12.37;;
31282;SDS011;17915;52.540;13.604;2023-01-09T08:31:17;22.57;;;12.07;;
31282;SDS011;17915;52.540;13.604;2023-01-09T08:33:43;17.57;;;11.37;;
31282;SDS011;17915;52.540;13.604;2023-01-09T08:36:08;20.17;;;12.13;;
31282;SDS011;17915;52.540;13.604;2023-01-09T08:38:34;21.60;;;13.33;;
31282;SDS011;17915;52.540;13.604;2023-01-09T08:40:59;18.00;;;11.90;;
31282;SDS011;17915;52.540;13.604;2023-01-09T08:43:44;25.15;;;11.82;;
31282;SDS011;17915;52.540;13.604;2023-01-09T08:46:28;16.83;;;11.45;;
31282;SDS011;17915;52.540;13.604;2023-01-09T08:49:12;17.83;;;11.38;;
31282;SDS011;17915;52.540;13.604;2023-01-09T08:51:38;21.37;;;12.20;;
31282;SDS011;17915;52.540;13.604;2023-01-09T08:54:03;17.53;;;11.77;;
31282;SDS011;17915;52.540;13.604;2023-01-09T08:56:28;22.10;;;13.30;;
31282;SDS011;17915;52.540;13.604;2023-01-09T08:58:54;27.30;;;12.60;;
31282;SDS011;17915;52.540;13.604;2023-01-09T09:01:19;19.33;;;13.03;;
31282;SDS011;17915;52.540;13.604;2023-01-09T09:03:45;16.60;;;11.10;;
31282;SDS011;17915;52.540;13.604;2023-01-09T09:06:11;22.17;;;11.63;;
31282;SDS011;17915;52.540;13.604;2023-01-09T09:08:36;19.75;;;12.10;;
31282;SDS011;17915;52.540;13.604;2023-01-09T09:11:02;22.27;;;12.77;;
31282;SDS011;17915;52.540;13.604;2023-01-09T09:13:27;17.23;;;11.20;;
31282;SDS011;17915;52.540;13.604;2023-01-09T09:15:52;18.10;;;11.83;;
31282;SDS011;17915;52.540;13.604;2023-01-09T09:18:18;20.00;;;10.20;;
31282;SDS011;17915;52.540;13.604;2023-01-09T09:20:43;23.20;;;13.23;;
31282;SDS011;17915;52.540;13.604;2023-01-09T09:23:09;16.43;;;11.43;;
31282;SDS011;17915;52.540;13.604;2023-01-09T09:25:34;18.53;;;11.90;;
31282;SDS011;17915;52.540;13.604;2023-01-09T09:28:02;18.33;;;11.82;;
31282;SDS011;17915;52.540;13.604;2023-01-09T09:30:27;17.27;;;11.63;;
31282;SDS011;17915;52.540;13.604;2023-01-09T09:32:53;17.33;;;11.00;;
31282;SDS011;17915;52.540;13.604;2023-01-09T09:35:18;19.97;;;11.90;;
31282;SDS011;17915;52.540;13.604;2023-01-09T09:37:52;18.80;;;12.00;;
31282;SDS011;17915;52.540;13.604;2023-01-09T09:40:37;15.32;;;10.98;;
31282;SDS011;17915;52.540;13.604;2023-01-09T09:46:40;19.90;;;12.32;;
31282;SDS011;17915;52.540;13.604;2023-01-09T09:54:33;18.17;;;12.70;;
31282;SDS011;17915;52.540;13.604;2023-01-09T09:57:04;21.23;;;12.55;;
31282;SDS011;17915;52.540;13.604;2023-01-09T09:59:32;28.15;;;13.40;;
31282;SDS011;17915;52.540;13.604;2023-01-09T10:04:39;15.18;;;10.48;;
31282;SDS011;17915;52.540;13.604;2023-01-09T10:07:14;20.00;;;11.18;;
31282;SDS011;17915;52.540;13.604;2023-01-09T10:09:46;13.45;;;10.10;;
31282;SDS011;17915;52.540;13.604;2023-01-09T10:12:29;19.40;;;11.27;;
31282;SDS011;17915;52.540;13.604;2023-01-09T10:14:57;19.17;;;12.65;;
31282;SDS011;17915;52.540;13.604;2023-01-09T10:25:45;15.15;;;9.88;;
31282;SDS011;17915;52.540;13.604;2023-01-09T10:31:15;18.08;;;12.10;;
31282;SDS011;17915;52.540;13.604;2023-01-09T10:36:44;16.08;;;11.50;;
31282;SDS011;17915;52.540;13.604;2023-01-09T10:39:34;15.23;;;10.38;;
31282;SDS011;17915;52.540;13.604;2023-01-09T10:44:40;17.27;;;10.73;;
31282;SDS011;17915;52.540;13.604;2023-01-09T10:47:34;15.43;;;10.90;;
31282;SDS011;17915;52.540;13.604;2023-01-09T10:50:13;13.70;;;9.70;;
31282;SDS011;17915;52.540;13.604;2023-01-09T10:52:44;16.90;;;10.57;;
31282;SDS011;17915;52.540;13.604;2023-01-09T10:55:16;17.48;;;10.85;;
31282;SDS011;17915;52.540;13.604;2023-01-09T10:57:57;14.02;;;10.07;;
31282;SDS011;17915;52.540;13.604;2023-01-09T11:00:27;15.23;;;10.63;;
31282;SDS011;17915;52.540;13.604;2023-01-09T11:02:53;12.30;;;10.33;;
31282;SDS011;17915;52.540;13.604;2023-01-09T11:05:20;22.20;;;11.90;;
31282;SDS011;17915;52.540;13.604;2023-01-09T11:13:21;12.65;;;8.43;;
31282;SDS011;17915;52.540;13.604;2023-01-09T11:16:10;10.88;;;8.20;;
31282;SDS011;17915;52.540;13.604;2023-01-09T11:18:57;11.02;;;8.65;;
31282;SDS011;17915;52.540;13.604;2023-01-09T11:21:27;11.10;;;7.40;;
31282;SDS011;17915;52.540;13.604;2023-01-09T11:24:15;8.27;;;7.30;;
31282;SDS011;17915;52.540;13.604;2023-01-09T11:26:53;9.30;;;6.22;;
31282;SDS011;17915;52.540;13.604;2023-01-09T11:29:39;8.05;;;6.47;;
31282;SDS011;17915;52.540;13.604;2023-01-09T11:32:05;9.00;;;7.38;;
31282;SDS011;17915;52.540;13.604;2023-01-09T11:34:34;13.23;;;7.50;;
31282;SDS011;17915;52.540;13.604;2023-01-09T11:37:01;8.27;;;6.25;;
31282;SDS011;17915;52.540;13.604;2023-01-09T11:39:28;7.13;;;5.57;;
31282;SDS011;17915;52.540;13.604;2023-01-09T11:41:59;13.43;;;6.50;;
31282;SDS011;17915;52.540;13.604;2023-01-09T11:44:29;7.80;;;5.38;;
31282;SDS011;17915;52.540;13.604;2023-01-09T11:46:55;12.60;;;6.93;;
31282;SDS011;17915;52.540;13.604;2023-01-09T11:54:54;6.13;;;5.40;;
31282;SDS011;17915;52.540;13.604;2023-01-09T11:57:23;9.48;;;5.82;;
31282;SDS011;17915;52.540;13.604;2023-01-09T11:59:49;6.47;;;5.87;;
31282;SDS011;17915;52.540;13.604;2023-01-09T12:10:26;4.60;;;4.22;;
31282;SDS011;17915;52.540;13.604;2023-01-09T12:18:07;13.90;;;4.43;;
31282;SDS011;17915;52.540;13.604;2023-01-09T12:39:15;6.53;;;3.83;;
31282;SDS011;17915;52.540;13.604;2023-01-09T12:44:44;3.17;;;2.97;;
31282;SDS011;17915;52.540;13.604;2023-01-09T12:53:08;8.38;;;2.85;;
31282;SDS011;17915;52.540;13.604;2023-01-09T12:55:39;7.25;;;3.13;;
31282;SDS011;17915;52.540;13.604;2023-01-09T12:58:28;8.77;;;3.85;;
31282;SDS011;17915;52.540;13.604;2023-01-09T13:00:56;3.20;;;2.90;;
31282;SDS011;17915;52.540;13.604;2023-01-09T13:03:27;6.32;;;3.08;;
31282;SDS011;17915;52.540;13.604;2023-01-09T13:05:58;8.90;;;4.40;;
31282;SDS011;17915;52.540;13.604;2023-01-09T13:08:29;11.23;;;5.00;;
31282;SDS011;17915;52.540;13.604;2023-01-09T13:13:44;8.27;;;2.78;;
31282;SDS011;17915;52.540;13.604;2023-01-09T13:16:19;5.10;;;3.33;;
31282;SDS011;17915;52.540;13.604;2023-01-09T13:18:54;6.68;;;2.58;;
31282;SDS011;17915;52.540;13.604;2023-01-09T13:21:22;14.43;;;2.45;;
31282;SDS011;17915;52.540;13.604;2023-01-09T13:23:49;7.63;;;2.53;;
31282;SDS011;17915;52.540;13.604;2023-01-09T13:28:55;9.93;;;3.63;;
31282;SDS011;17915;52.540;13.604;2023-01-09T13:34:00;5.15;;;2.33;;
31282;SDS011;17915;52.540;13.604;2023-01-09T13:36:27;4.63;;;2.90;;
31282;SDS011;17915;52.540;13.604;2023-01-09T13:38:59;4.07;;;2.33;;
31282;SDS011;17915;52.540;13.604;2023-01-09T13:41:26;3.15;;;2.85;;
31282;SDS011;17915;52.540;13.604;2023-01-09T13:46:42;8.30;;;2.90;;
31282;SDS011;17915;52.540;13.604;2023-01-09T13:57:31;3.22;;;2.72;;
31282;SDS011;17915;52.540;13.604;2023-01-09T14:07:41;10.45;;;3.97;;
31282;SDS011;17915;52.540;13.604;2023-01-09T14:12:47;5.32;;;2.72;;
31282;SDS011;17915;52.540;13.604;2023-01-09T14:18:04;4.60;;;2.97;;
31282;SDS011;17915;52.540;13.604;2023-01-09T14:20:35;9.95;;;3.05;;
31282;SDS011;17915;52.540;13.604;2023-01-09T14:23:02;15.85;;;2.80;;
31282;SDS011;17915;52.540;13.604;2023-01-09T14:25:29;15.77;;;2.63;;
31282;SDS011;17915;52.540;13.604;2023-01-09T14:30:34;6.13;;;3.05;;
31282;SDS011;17915;52.540;13.604;2023-01-09T14:38:22;7.82;;;2.75;;
31282;SDS011;17915;52.540;13.604;2023-01-09T14:41:01;10.73;;;4.30;;
31282;SDS011;17915;52.540;13.604;2023-01-09T14:46:22;3.50;;;2.30;;
31282;SDS011;17915;52.540;13.604;2023-01-09T14:48:59;7.60;;;2.38;;
31282;SDS011;17915;52.540;13.604;2023-01-09T14:51:30;8.25;;;3.08;;
31282;SDS011;17915;52.540;13.604;2023-01-09T14:53:57;6.95;;;2.65;;
31282;SDS011;17915;52.540;13.604;2023-01-09T14:56:26;2.50;;;2.28;;
31282;SDS011;17915;52.540;13.604;2023-01-09T15:01:48;5.82;;;2.72;;
31282;SDS011;17915;52.540;13.604;2023-01-09T15:04:25;16.15;;;2.63;;
31282;SDS011;17915;52.540;13.604;2023-01-09T15:06:58;7.28;;;2.80;;
31282;SDS011;17915;52.540;13.604;2023-01-09T15:11:51;4.00;;;2.42;;
31282;SDS011;17915;52.540;13.604;2023-01-09T15:14:40;8.15;;;2.10;;
31282;SDS011;17915;52.540;13.604;2023-01-09T15:17:06;6.43;;;1.90;;
31282;SDS011;17915;52.540;13.604;2023-01-09T15:19:45;3.72;;;2.53;;
31282;SDS011;17915;52.540;13.604;2023-01-09T15:22:28;11.95;;;2.92;;
31282;SDS011;17915;52.540;13.604;2023-01-09T15:24:55;9.73;;;3.22;;
31282;SDS011;17915;52.540;13.604;2023-01-09T15:27:21;9.02;;;2.88;;
31282;SDS011;17915;52.540;13.604;2023-01-09T15:29:48;3.78;;;2.80;;
31282;SDS011;17915;52.540;13.604;2023-01-09T15:34:43;9.85;;;3.58;;
31282;SDS011;17915;52.540;13.604;2023-01-09T15:39:51;6.10;;;2.90;;
31282;SDS011;17915;52.540;13.604;2023-01-09T15:42:21;7.53;;;3.90;;
31282;SDS011;17915;52.540;13.604;2023-01-09T15:45:20;7.05;;;2.70;;
31282;SDS011;17915;52.540;13.604;2023-01-09T15:47:47;3.97;;;3.10;;
31282;SDS011;17915;52.540;13.604;2023-01-09T15:50:17;5.50;;;3.20;;
31282;SDS011;17915;52.540;13.604;2023-01-09T15:52:46;6.75;;;3.53;;
31282;SDS011;17915;52.540;13.604;2023-01-09T15:55:22;4.40;;;3.78;;
31282;SDS011;17915;52.540;13.604;2023-01-09T15:57:52;5.43;;;2.65;;
31282;SDS011;17915;52.540;13.604;2023-01-09T16:00:31;6.47;;;3.15;;
31282;SDS011;17915;52.540;13.604;2023-01-09T16:03:07;7.95;;;4.40;;
31282;SDS011;17915;52.540;13.604;2023-01-09T16:05:44;6.38;;;3.60;;
31282;SDS011;17915;52.540;13.604;2023-01-09T16:08:22;9.90;;;3.40;;
31282;SDS011;17915;52.540;13.604;2023-01-09T16:10:54;4.57;;;3.63;;
31282;SDS011;17915;52.540;13.604;2023-01-09T16:13:21;5.70;;;3.83;;
31282;SDS011;17915;52.540;13.604;2023-01-09T16:15:48;6.10;;;4.05;;
31282;SDS011;17915;52.540;13.604;2023-01-09T16:20:40;10.30;;;6.17;;
31282;SDS011;17915;52.540;13.604;2023-01-09T16:23:17;6.55;;;5.25;;
31282;SDS011;17915;52.540;13.604;2023-01-09T16:25:45;4.53;;;3.95;;
31282;SDS011;17915;52.540;13.604;2023-01-09T16:28:23;12.30;;;7.00;;
31282;SDS011;17915;52.540;13.604;2023-01-09T16:31:05;10.85;;;5.47;;
31282;SDS011;17915;52.540;13.604;2023-01-09T16:33:32;7.25;;;3.90;;
31282;SDS011;17915;52.540;13.604;2023-01-09T16:35:58;6.10;;;3.85;;
31282;SDS011;17915;52.540;13.604;2023-01-09T16:38:24;10.23;;;4.20;;
31282;SDS011;17915;52.540;13.604;2023-01-09T16:41:06;7.00;;;5.13;;
31282;SDS011;17915;52.540;13.604;2023-01-09T16:43:55;5.18;;;4.68;;
31282;SDS011;17915;52.540;13.604;2023-01-09T16:46:21;9.37;;;4.87;;
31282;SDS011;17915;52.540;13.604;2023-01-09T16:48:46;4.17;;;3.87;;
31282;SDS011;17915;52.540;13.604;2023-01-09T16:51:13;4.97;;;4.47;;
31282;SDS011;17915;52.540;13.604;2023-01-09T16:53:43;5.25;;;3.83;;
31282;SDS011;17915;52.540;13.604;2023-01-09T16:56:24;5.60;;;3.70;;
31282;SDS011;17915;52.540;13.604;2023-01-09T16:58:51;5.00;;;4.45;;
31282;SDS011;17915;52.540;13.604;2023-01-09T17:01:18;11.88;;;5.20;;
31282;SDS011;17915;52.540;13.604;2023-01-09T17:03:44;7.25;;;4.82;;
31282;SDS011;17915;52.540;13.604;2023-01-09T17:06:28;7.33;;;4.00;;
31282;SDS011;17915;52.540;13.604;2023-01-09T17:08:55;8.13;;;4.45;;
31282;SDS011;17915;52.540;13.604;2023-01-09T17:11:23;6.53;;;3.83;;
31282;SDS011;17915;52.540;13.604;2023-01-09T17:13:54;4.38;;;3.97;;
31282;SDS011;17915;52.540;13.604;2023-01-09T17:16:19;6.53;;;4.13;;
31282;SDS011;17915;52.540;13.604;2023-01-09T17:18:44;13.13;;;6.23;;
31282;SDS011;17915;52.540;13.604;2023-01-09T17:21:20;11.23;;;4.37;;
31282;SDS011;17915;52.540;13.604;2023-01-09T17:23:47;6.97;;;4.90;;
31282;SDS011;17915;52.540;13.604;2023-01-09T17:26:32;3.78;;;3.47;;
31282;SDS011;17915;52.540;13.604;2023-01-09T17:29:16;9.75;;;4.05;;